createdAt,value
2018-12-07T00:00:41.920Z,4.30
2018-12-07T00:01:44.925Z,4.90
2018-12-07T00:02:41.930Z,4.40
2018-12-07T00:03:42.427Z,4.00
2018-12-07T00:06:34.780Z,4.20
2018-12-07T00:07:18.722Z,4.20
2018-12-07T00:08:14.732Z,4.10
2018-12-07T00:09:35.287Z,4.00
2018-12-07T00:11:45.519Z,3.70
2018-12-07T00:14:41.725Z,4.10
2018-12-07T00:15:41.732Z,3.80
2018-12-07T00:16:33.166Z,4.00
2018-12-07T00:18:56.453Z,4.20
2018-12-07T00:20:13.460Z,4.20
2018-12-07T00:24:20.626Z,3.80
2018-12-07T00:25:16.649Z,3.80
2018-12-07T00:25:55.632Z,3.90
2018-12-07T00:26:56.131Z,3.70
2018-12-07T00:29:30.982Z,3.90
2018-12-07T00:30:27.491Z,4.00
2018-12-07T00:31:48.493Z,3.80
2018-12-07T00:35:34.152Z,3.80
2018-12-07T00:36:30.659Z,3.50
2018-12-07T00:37:30.658Z,4.00
2018-12-07T00:38:53.119Z,3.60
2018-12-07T00:39:31.165Z,3.70
2018-12-07T00:41:04.592Z,4.00
2018-12-07T00:41:31.166Z,3.10
2018-12-07T00:44:02.899Z,3.10
2018-12-07T00:45:04.338Z,3.40
2018-12-07T00:46:06.894Z,3.90
2018-12-07T00:47:10.829Z,3.30
2018-12-07T00:48:24.396Z,3.40
2018-12-07T00:49:09.833Z,3.40
2018-12-07T00:50:24.394Z,3.30
2018-12-07T00:51:30.398Z,3.30
2018-12-07T00:53:35.751Z,3.40
2018-12-07T00:54:35.760Z,3.40
2018-12-07T00:55:35.760Z,3.50
2018-12-07T00:57:00.759Z,3.30
2018-12-07T00:57:36.260Z,3.00
2018-12-07T00:58:36.261Z,3.00
2018-12-07T00:59:36.260Z,3.20
2018-12-07T01:03:42.839Z,3.20
2018-12-07T01:06:14.273Z,3.50
2018-12-07T01:08:49.005Z,3.00
2018-12-07T01:10:10.011Z,3.00
2018-12-07T01:10:49.016Z,2.90
2018-12-07T01:13:27.215Z,2.80
2018-12-07T01:14:20.768Z,2.70
2018-12-07T01:18:27.921Z,3.20
2018-12-07T01:19:25.361Z,2.90
2018-12-07T01:20:23.926Z,3.20
2018-12-07T01:23:16.654Z,2.90
2018-12-07T01:25:31.798Z,2.70
2018-12-07T01:28:16.428Z,3.40
2018-12-07T01:29:04.978Z,3.20
2018-12-07T01:30:03.914Z,3.10
2018-12-07T01:31:02.436Z,3.10
2018-12-07T01:33:35.605Z,2.80
2018-12-07T01:34:38.176Z,2.90
2018-12-07T01:35:34.670Z,2.90
2018-12-07T01:38:08.360Z,2.70
2018-12-07T01:39:27.406Z,3.20
2018-12-07T01:41:41.347Z,3.00
2018-12-07T01:43:03.791Z,2.90
2018-12-07T01:43:41.356Z,2.60
2018-12-07T01:46:38.097Z,2.50
2018-12-07T01:47:12.449Z,2.70
2018-12-07T01:48:34.095Z,2.80
2018-12-07T01:51:05.111Z,2.30
2018-12-07T01:51:50.271Z,2.60
2018-12-07T01:53:07.302Z,2.70
2018-12-07T01:55:16.533Z,2.50
2018-12-07T01:56:18.004Z,2.60
2018-12-07T01:57:20.046Z,2.60
2018-12-07T01:59:54.274Z,2.20
2018-12-07T02:01:09.284Z,2.00
2018-12-07T02:01:48.277Z,2.40
2018-12-07T02:04:44.226Z,2.20
2018-12-07T02:05:24.668Z,2.50
2018-12-07T02:06:44.245Z,2.30
2018-12-07T02:07:23.233Z,2.30
2018-12-07T02:10:00.318Z,2.30
2018-12-07T02:12:30.351Z,2.10
2018-12-07T02:13:54.858Z,2.00
2018-12-07T02:14:30.359Z,1.80
2018-12-07T02:17:25.028Z,1.60
2018-12-07T02:18:02.103Z,1.90
2018-12-07T02:22:09.170Z,2.10
2018-12-07T02:25:08.726Z,1.80
2018-12-07T02:26:02.284Z,2.10
2018-12-07T02:26:41.284Z,1.80
2018-12-07T02:27:47.784Z,2.10
2018-12-07T02:28:41.792Z,1.90
2018-12-07T02:29:41.790Z,1.90
2018-12-07T02:31:06.783Z,1.70
2018-12-07T02:37:51.067Z,2.10
2018-12-07T02:38:51.072Z,2.00
2018-12-07T02:39:51.077Z,2.00
2018-12-07T02:41:12.578Z,1.90
2018-12-07T02:42:16.077Z,2.20
2018-12-07T02:42:51.573Z,2.40
2018-12-07T02:43:51.573Z,2.30
2018-12-07T02:44:52.072Z,2.10
2018-12-07T02:47:26.923Z,2.10
2018-12-07T02:48:23.435Z,2.10
2018-12-07T02:49:23.432Z,2.10
2018-12-07T02:50:39.368Z,2.00
2018-12-07T02:51:44.931Z,2.00
2018-12-07T02:52:54.448Z,2.00
2018-12-07T02:53:47.368Z,1.90
2018-12-07T02:55:55.659Z,1.90
2018-12-07T03:00:01.825Z,2.00
2018-12-07T03:01:02.546Z,2.00
2018-12-07T03:02:02.535Z,1.70
2018-12-07T03:05:02.715Z,1.60
2018-12-07T03:05:34.269Z,1.90
2018-12-07T03:06:34.269Z,1.70
2018-12-07T03:09:08.942Z,1.80
2018-12-07T03:10:09.101Z,1.50
2018-12-07T03:11:05.563Z,1.50
2018-12-07T03:13:39.273Z,1.90
2018-12-07T03:16:12.867Z,1.70
2018-12-07T03:17:09.377Z,1.70
2018-12-07T03:18:09.375Z,1.50
2018-12-07T03:21:02.152Z,1.60
2018-12-07T03:23:15.914Z,1.60
2018-12-07T03:24:15.922Z,1.60
2018-12-07T03:25:15.928Z,1.80
2018-12-07T03:26:16.421Z,1.50
2018-12-07T03:27:22.436Z,1.70
2018-12-07T03:28:16.427Z,1.60
2018-12-07T03:29:16.421Z,1.70
2018-12-07T03:30:37.925Z,1.70
2018-12-07T03:31:16.932Z,2.30
2018-12-07T03:32:16.923Z,1.40
2018-12-07T03:33:41.940Z,1.80
2018-12-07T03:34:17.434Z,2.00
2018-12-07T03:35:17.431Z,1.70
2018-12-07T03:36:17.421Z,1.50
2018-12-07T03:37:17.423Z,1.60
2018-12-07T03:38:17.926Z,1.70
2018-12-07T03:39:20.924Z,1.60
2018-12-07T03:40:20.879Z,1.70
2018-12-07T03:41:17.922Z,1.60
2018-12-07T03:43:49.652Z,1.40
2018-12-07T03:44:52.660Z,1.40
2018-12-07T03:49:13.678Z,1.70
2018-12-07T03:49:56.185Z,1.10
2018-12-07T03:52:24.865Z,1.30
2018-12-07T03:53:24.421Z,1.20
2018-12-07T03:54:45.421Z,1.50
2018-12-07T03:55:28.440Z,1.60
2018-12-07T03:56:45.922Z,1.20
2018-12-07T03:57:46.000Z,1.20
2018-12-07T03:58:24.920Z,1.60
2018-12-07T03:59:24.922Z,1.10
2018-12-07T04:00:27.427Z,1.40
2018-12-07T04:01:28.462Z,1.30
2018-12-07T04:05:49.364Z,1.60
2018-12-07T04:08:24.231Z,1.20
2018-12-07T04:09:03.238Z,1.50
2018-12-07T04:10:24.239Z,1.60
2018-12-07T04:14:10.347Z,1.30
2018-12-07T04:15:31.357Z,1.30
2018-12-07T04:18:48.025Z,1.40
2018-12-07T04:20:04.502Z,1.40
2018-12-07T04:21:03.068Z,1.50
2018-12-07T04:21:44.529Z,1.20
2018-12-07T04:24:17.879Z,1.90
2018-12-07T04:25:34.888Z,1.40
2018-12-07T04:27:45.503Z,1.60
2018-12-07T04:28:45.514Z,1.80
2018-12-07T04:31:34.680Z,1.60
2018-12-07T04:33:52.153Z,1.90
2018-12-07T04:39:31.529Z,1.90
2018-12-07T04:40:33.096Z,1.90
2018-12-07T04:43:22.702Z,3.20
2018-12-07T04:44:01.708Z,1.70
2018-12-07T04:45:22.708Z,1.60
2018-12-07T04:46:11.714Z,1.70
2018-12-07T04:48:33.573Z,3.10
2018-12-07T04:49:33.581Z,1.40
2018-12-07T04:50:33.578Z,1.70
2018-12-07T04:53:09.918Z,1.30
2018-12-07T04:54:32.358Z,2.10
2018-12-07T04:55:24.423Z,1.80
2018-12-07T05:01:09.439Z,1.60
2018-12-07T05:03:23.424Z,1.50
2018-12-07T05:04:20.911Z,1.60
2018-12-07T05:05:19.930Z,1.60
2018-12-07T05:09:29.055Z,2.50
2018-12-07T05:11:55.157Z,2.00
2018-12-07T05:12:55.170Z,1.90
2018-12-07T05:13:55.164Z,1.90
2018-12-07T05:19:33.531Z,1.90
2018-12-07T05:20:37.537Z,1.60
2018-12-07T05:21:33.539Z,2.20
2018-12-07T05:24:26.263Z,1.80
2018-12-07T05:25:27.265Z,1.60
2018-12-07T05:29:12.093Z,1.60
2018-12-07T05:30:12.107Z,1.80
2018-12-07T05:31:15.602Z,1.60
2018-12-07T05:34:06.326Z,1.60
2018-12-07T05:38:12.100Z,1.40
2018-12-07T05:39:12.108Z,1.80
2018-12-07T05:40:12.115Z,1.40
2018-12-07T05:45:29.223Z,1.30
2018-12-07T05:48:06.897Z,1.40
2018-12-07T05:49:01.467Z,1.20
2018-12-07T05:50:01.462Z,1.00
2018-12-07T05:52:55.650Z,2.40
2018-12-07T05:53:37.195Z,1.10
2018-12-07T05:56:27.371Z,1.20
2018-12-07T05:57:04.933Z,1.00
2018-12-07T05:58:27.363Z,0.90
2018-12-07T05:59:29.429Z,0.70
2018-12-07T06:00:11.428Z,1.30
2018-12-07T06:01:05.441Z,0.80
2018-12-07T06:02:26.428Z,0.60
2018-12-07T06:07:44.872Z,1.10
2018-12-07T06:09:05.879Z,0.60
2018-12-07T06:10:09.384Z,1.50
2018-12-07T06:12:16.615Z,0.60
2018-12-07T06:13:39.056Z,1.10
2018-12-07T06:14:16.622Z,0.70
2018-12-07T06:15:20.122Z,0.80
2018-12-07T06:16:17.122Z,1.50
2018-12-07T06:17:17.122Z,0.60
2018-12-07T06:18:17.130Z,0.50
2018-12-07T06:19:17.622Z,0.60
2018-12-07T06:20:21.188Z,0.70
2018-12-07T06:21:17.628Z,0.60
2018-12-07T06:22:17.622Z,1.90
2018-12-07T06:29:28.170Z,0.70
2018-12-07T06:32:03.148Z,1.00
2018-12-07T06:32:59.656Z,0.80
2018-12-07T06:35:33.212Z,2.30
2018-12-07T06:36:54.712Z,2.00
2018-12-07T06:40:37.993Z,1.40
2018-12-07T06:41:43.993Z,0.90
2018-12-07T06:42:41.992Z,0.90
2018-12-07T06:43:38.492Z,0.80
2018-12-07T06:49:17.526Z,1.60
2018-12-07T06:50:17.496Z,1.40
2018-12-07T06:51:19.432Z,1.00
2018-12-07T06:52:23.998Z,1.30
2018-12-07T06:59:31.968Z,1.30
2018-12-07T07:00:28.474Z,1.00
2018-12-07T07:01:28.479Z,1.20
2018-12-07T07:04:21.202Z,0.60
2018-12-07T07:05:03.715Z,0.70
2018-12-07T07:06:21.209Z,0.80
2018-12-07T07:08:31.949Z,1.00
2018-12-07T07:11:05.808Z,2.50
2018-12-07T07:12:26.434Z,1.20
2018-12-07T07:13:17.435Z,0.80
2018-12-07T07:15:58.629Z,0.70
2018-12-07T07:21:13.433Z,1.20
2018-12-07T07:22:22.373Z,0.50
2018-12-07T07:23:13.443Z,0.90
2018-12-07T07:26:05.426Z,1.60
2018-12-07T07:28:20.666Z,0.60
2018-12-07T07:29:39.600Z,0.80
2018-12-07T07:30:17.170Z,2.70
2018-12-07T07:31:43.400Z,0.50
2018-12-07T07:32:23.668Z,0.60
2018-12-07T07:33:42.169Z,0.80
2018-12-07T07:37:20.447Z,0.50
2018-12-07T07:40:55.775Z,1.30
2018-12-07T07:43:51.043Z,1.10
2018-12-07T07:50:37.519Z,1.20
2018-12-07T07:53:29.989Z,2.20
2018-12-07T07:54:11.637Z,1.90
2018-12-07T07:55:09.001Z,1.40
2018-12-07T07:59:14.816Z,2.80
2018-12-07T08:00:11.787Z,0.50
2018-12-07T08:01:12.457Z,0.80
2018-12-07T08:02:12.458Z,0.70
2018-12-07T08:03:36.891Z,0.60
2018-12-07T08:04:30.954Z,0.70
2018-12-07T08:08:36.136Z,1.20
2018-12-07T08:09:21.329Z,0.80
2018-12-07T08:10:15.888Z,1.00
2018-12-07T08:13:07.991Z,1.10
2018-12-07T08:16:54.360Z,1.10
2018-12-07T08:17:53.798Z,1.60
2018-12-07T08:19:14.755Z,1.00
2018-12-07T08:19:54.374Z,1.10
2018-12-07T08:21:19.366Z,1.00
2018-12-07T08:23:26.388Z,1.00
2018-12-07T08:26:01.732Z,0.70
2018-12-07T08:26:59.182Z,0.90
2018-12-07T08:28:18.740Z,1.70
2018-12-07T08:28:59.686Z,0.70
2018-12-07T08:31:34.366Z,0.90
2018-12-07T08:34:01.021Z,1.40
2018-12-07T08:35:00.987Z,0.80
2018-12-07T08:36:21.985Z,0.90
2018-12-07T08:37:25.226Z,1.20
2018-12-07T08:38:22.487Z,0.80
2018-12-07T08:39:01.487Z,0.90
2018-12-07T08:40:01.488Z,0.80
2018-12-07T08:41:15.987Z,0.90
2018-12-07T08:43:37.146Z,0.90
2018-12-07T08:44:37.284Z,0.90
2018-12-07T08:45:37.870Z,1.00
2018-12-07T08:48:13.112Z,1.60
2018-12-07T08:49:08.960Z,2.00
2018-12-07T08:50:09.607Z,0.90
2018-12-07T08:51:11.580Z,1.10
2018-12-07T08:53:44.948Z,0.90
2018-12-07T08:54:42.910Z,1.20
2018-12-07T08:55:41.514Z,3.10
2018-12-07T08:58:14.119Z,1.30
2018-12-07T08:59:17.620Z,1.90
2018-12-07T09:00:14.622Z,1.80
2018-12-07T09:01:34.681Z,1.20
2018-12-07T09:02:17.119Z,1.70
2018-12-07T09:03:13.685Z,1.50
2018-12-07T09:07:26.494Z,1.50
2018-12-07T09:08:20.491Z,1.60
2018-12-07T09:09:25.995Z,0.90
2018-12-07T09:13:23.933Z,1.20
2018-12-07T09:14:26.935Z,1.80
2018-12-07T09:17:16.541Z,1.40
2018-12-07T09:17:55.549Z,1.60
2018-12-07T09:18:55.550Z,1.10
2018-12-07T09:19:59.552Z,1.90
2018-12-07T09:21:19.046Z,1.30
2018-12-07T09:21:56.063Z,1.20
2018-12-07T09:22:56.052Z,1.10
2018-12-07T09:24:16.623Z,1.40
2018-12-07T09:25:00.052Z,1.60
2018-12-07T09:27:48.903Z,1.70
2018-12-07T09:28:27.908Z,1.20
2018-12-07T09:29:27.501Z,1.60
2018-12-07T09:30:31.415Z,1.50
2018-12-07T09:31:28.490Z,1.60
2018-12-07T09:32:27.873Z,1.70
2018-12-07T09:35:35.112Z,1.70
2018-12-07T09:36:25.129Z,1.70
2018-12-07T09:37:00.118Z,1.50
2018-12-07T09:39:31.848Z,1.90
2018-12-07T09:40:34.289Z,1.70
2018-12-07T09:41:35.095Z,1.90
2018-12-07T09:42:31.851Z,1.60
2018-12-07T09:45:03.584Z,2.00
2018-12-07T09:46:03.594Z,2.00
2018-12-07T09:48:38.096Z,2.20
2018-12-07T09:51:10.324Z,2.10
2018-12-07T09:54:05.350Z,2.00
2018-12-07T09:54:45.122Z,2.60
2018-12-07T09:55:48.543Z,2.30
2018-12-07T09:59:52.735Z,2.90
2018-12-07T10:01:19.023Z,2.60
2018-12-07T10:01:52.105Z,1.90
2018-12-07T10:03:08.681Z,2.10
2018-12-07T10:03:55.774Z,1.80
2018-12-07T10:05:07.246Z,3.40
2018-12-07T10:08:59.524Z,2.30
2018-12-07T10:10:17.031Z,2.10
2018-12-07T10:10:56.029Z,1.90
2018-12-07T10:11:56.533Z,1.90
2018-12-07T10:12:57.986Z,2.00
2018-12-07T10:13:59.130Z,1.60
2018-12-07T10:18:05.821Z,2.00
2018-12-07T10:19:07.295Z,2.00
2018-12-07T10:20:22.267Z,3.70
2018-12-07T10:22:31.508Z,1.60
2018-12-07T10:28:08.949Z,2.50
2018-12-07T10:29:08.956Z,2.30
2018-12-07T10:30:33.455Z,2.20
2018-12-07T10:31:29.525Z,2.30
2018-12-07T10:32:31.888Z,1.60
2018-12-07T10:33:09.460Z,1.60
2018-12-07T10:34:09.464Z,1.70
2018-12-07T10:35:33.767Z,1.70
2018-12-07T10:37:41.133Z,1.40
2018-12-07T10:40:36.613Z,1.60
2018-12-07T10:44:15.537Z,2.30
2018-12-07T10:46:50.325Z,1.60
2018-12-07T10:48:05.788Z,1.90
2018-12-07T10:49:11.334Z,1.90
2018-12-07T10:50:11.328Z,2.00
2018-12-07T10:51:15.330Z,2.60
2018-12-07T10:51:50.827Z,2.30
2018-12-07T10:52:52.295Z,2.30
2018-12-07T10:54:04.828Z,1.30
2018-12-07T10:56:47.061Z,1.00
2018-12-07T11:00:25.255Z,0.70
2018-12-07T11:01:29.473Z,1.50
2018-12-07T11:02:25.497Z,1.30
2018-12-07T11:03:47.482Z,0.80
2018-12-07T11:04:53.481Z,0.70
2018-12-07T11:05:47.481Z,0.80
2018-12-07T11:06:30.480Z,0.60
2018-12-07T11:10:31.577Z,0.70
2018-12-07T11:11:32.645Z,0.60
2018-12-07T11:12:29.645Z,0.50
2018-12-07T11:14:05.145Z,1.90
2018-12-07T11:14:51.141Z,1.70
2018-12-07T11:15:29.490Z,1.60
2018-12-07T11:18:05.373Z,0.60
2018-12-07T11:19:19.381Z,0.40
2018-12-07T11:20:05.387Z,0.90
2018-12-07T11:24:33.469Z,0.60
2018-12-07T11:25:12.476Z,1.00
2018-12-07T11:26:12.476Z,0.70
2018-12-07T11:28:47.382Z,0.90
2018-12-07T11:29:44.213Z,0.60
2018-12-07T11:30:44.210Z,0.80
2018-12-07T11:32:19.714Z,1.40
2018-12-07T11:32:44.712Z,0.90
2018-12-07T11:33:44.712Z,1.90
2018-12-07T11:37:56.939Z,1.50
2018-12-07T11:39:04.950Z,1.20
2018-12-07T11:41:46.780Z,1.10
2018-12-07T11:43:58.713Z,1.50
2018-12-07T11:46:32.036Z,1.50
2018-12-07T11:47:38.047Z,1.70
2018-12-07T11:48:32.037Z,1.40
2018-12-07T11:49:32.538Z,1.50
2018-12-07T11:50:56.526Z,1.30
2018-12-07T11:54:37.707Z,1.60
2018-12-07T11:57:10.944Z,1.50
2018-12-07T11:58:32.088Z,2.40
2018-12-07T11:59:12.954Z,2.60
2018-12-07T12:00:25.451Z,2.20
2018-12-07T12:01:35.955Z,2.10
2018-12-07T12:02:10.809Z,1.60
2018-12-07T12:03:11.451Z,2.20
2018-12-07T12:04:11.045Z,2.60
2018-12-07T12:09:35.380Z,2.10
2018-12-07T12:13:50.865Z,2.30
2018-12-07T12:14:28.405Z,2.10
2018-12-07T12:15:54.848Z,2.30
2018-12-07T12:21:10.892Z,2.10
2018-12-07T12:22:24.044Z,2.40
2018-12-07T12:23:02.959Z,2.10
2018-12-07T12:24:09.458Z,2.10
2018-12-07T12:29:43.061Z,3.50
2018-12-07T12:30:41.120Z,2.40
2018-12-07T12:31:44.610Z,2.10
2018-12-07T12:34:12.843Z,3.00
2018-12-07T12:35:12.849Z,3.60
2018-12-07T12:36:17.051Z,4.20
2018-12-07T12:37:31.381Z,2.60
2018-12-07T12:38:12.491Z,2.90
2018-12-07T12:39:14.286Z,2.10
2018-12-07T12:40:33.675Z,2.20
2018-12-07T12:41:34.345Z,3.00
2018-12-07T12:42:13.349Z,2.80
2018-12-07T12:46:20.027Z,2.00
2018-12-07T12:47:22.029Z,3.00
2018-12-07T12:48:23.533Z,2.90
2018-12-07T12:51:12.761Z,2.60
2018-12-07T12:51:51.113Z,2.10
2018-12-07T12:52:51.775Z,1.60
2018-12-07T12:53:56.270Z,2.50
2018-12-07T12:54:51.487Z,3.50
2018-12-07T12:57:23.717Z,1.80
2018-12-07T12:58:23.722Z,3.20
2018-12-07T12:59:27.727Z,2.60
2018-12-07T13:01:26.222Z,4.20
2018-12-07T13:03:55.699Z,1.90
2018-12-07T13:04:59.204Z,2.10
2018-12-07T13:05:55.705Z,1.40
2018-12-07T13:06:56.204Z,1.80
2018-12-07T13:11:37.475Z,1.30
2018-12-07T13:12:00.983Z,1.70
2018-12-07T13:13:19.429Z,2.10
2018-12-07T13:14:05.488Z,1.30
2018-12-07T13:15:20.485Z,1.20
2018-12-07T13:16:05.483Z,2.20
2018-12-07T13:18:54.463Z,1.60
2018-12-07T13:19:30.820Z,1.00
2018-12-07T13:20:53.933Z,2.00
2018-12-07T13:21:34.970Z,1.00
2018-12-07T13:24:24.094Z,1.50
2018-12-07T13:29:41.797Z,1.00
2018-12-07T13:31:05.683Z,1.10
2018-12-07T13:33:17.936Z,0.50
2018-12-07T13:36:21.938Z,1.40
2018-12-07T13:37:04.220Z,1.10
2018-12-07T13:38:00.437Z,0.70
2018-12-07T13:39:15.444Z,0.80
2018-12-07T13:40:03.449Z,0.70
2018-12-07T13:42:35.832Z,0.90
2018-12-07T13:43:32.945Z,0.90
2018-12-07T13:44:32.536Z,2.10
2018-12-07T13:45:33.715Z,0.70
2018-12-07T13:49:39.589Z,0.80
2018-12-07T13:50:39.611Z,2.20
2018-12-07T13:52:00.684Z,3.50
2018-12-07T13:52:54.093Z,0.80
2018-12-07T13:53:43.707Z,0.90
2018-12-07T13:55:02.556Z,1.90
2018-12-07T13:58:47.073Z,1.30
2018-12-07T13:59:49.036Z,3.10
2018-12-07T14:00:42.563Z,0.90
2018-12-07T14:01:43.533Z,1.80
2018-12-07T14:03:04.582Z,1.00
2018-12-07T14:03:43.524Z,0.90
2018-12-07T14:05:09.455Z,1.10
2018-12-07T14:07:17.264Z,1.10
2018-12-07T14:08:37.821Z,1.80
2018-12-07T14:09:15.259Z,2.60
2018-12-07T14:11:50.886Z,1.30
2018-12-07T14:22:26.279Z,1.90
2018-12-07T14:23:01.789Z,1.40
2018-12-07T14:24:23.413Z,1.40
2018-12-07T14:25:02.284Z,2.00
2018-12-07T14:29:09.004Z,2.10
2018-12-07T14:33:16.879Z,1.00
2018-12-07T14:37:15.004Z,0.70
2018-12-07T14:43:14.533Z,1.20
2018-12-07T14:43:57.546Z,1.70
2018-12-07T14:45:15.990Z,1.00
2018-12-07T14:47:25.775Z,2.00
2018-12-07T14:48:46.846Z,0.90
2018-12-07T14:49:50.267Z,0.90
2018-12-07T14:50:25.782Z,1.00
2018-12-07T14:52:56.883Z,1.50
2018-12-07T14:53:57.573Z,1.00
2018-12-07T14:58:24.885Z,0.60
2018-12-07T14:59:24.778Z,0.70
2018-12-07T15:00:07.302Z,1.00
2018-12-07T15:01:03.527Z,1.70
2018-12-07T15:03:56.574Z,0.90
2018-12-07T15:04:56.103Z,2.00
2018-12-07T15:10:14.091Z,0.90
2018-12-07T15:11:15.555Z,1.20
2018-12-07T15:13:43.734Z,1.10
2018-12-07T15:15:06.782Z,1.30
2018-12-07T15:17:18.451Z,1.00
2018-12-07T15:18:15.603Z,2.40
2018-12-07T15:19:15.414Z,1.00
2018-12-07T15:26:24.795Z,0.80
2018-12-07T15:27:27.165Z,0.90
2018-12-07T15:28:27.671Z,0.60
2018-12-07T15:29:46.180Z,1.20
2018-12-07T15:30:24.579Z,1.30
2018-12-07T15:31:25.295Z,0.60
2018-12-07T15:37:02.718Z,2.10
2018-12-07T15:40:13.376Z,0.80
2018-12-07T15:40:56.847Z,1.00
2018-12-07T15:41:34.920Z,0.90
2018-12-07T15:45:42.464Z,1.10
2018-12-07T15:46:38.112Z,0.70
2018-12-07T15:49:09.855Z,1.30
2018-12-07T15:50:46.652Z,0.70
2018-12-07T15:51:13.678Z,0.80
2018-12-07T15:52:30.698Z,1.00
2018-12-07T15:53:16.270Z,1.00
2018-12-07T15:56:02.606Z,0.80
2018-12-07T15:57:07.949Z,1.10
2018-12-07T15:58:02.577Z,0.70
2018-12-07T16:00:12.584Z,1.20
2018-12-07T16:01:13.430Z,1.40
2018-12-07T16:04:09.360Z,0.80
2018-12-07T16:04:48.599Z,2.60
2018-12-07T16:05:48.395Z,0.60
2018-12-07T16:12:58.926Z,0.60
2018-12-07T16:14:01.574Z,1.10
2018-12-07T16:14:58.628Z,0.40
2018-12-07T16:19:05.856Z,0.70
2018-12-07T16:21:33.802Z,0.30
2018-12-07T16:22:33.840Z,0.60
2018-12-07T16:23:33.923Z,0.90
2018-12-07T16:24:42.160Z,0.70
2018-12-07T16:25:34.386Z,0.50
2018-12-07T16:26:34.207Z,0.30
2018-12-07T16:27:34.217Z,0.70
2018-12-07T16:30:08.998Z,1.00
2018-12-07T16:31:05.959Z,0.40
2018-12-07T16:32:05.965Z,0.90
2018-12-07T16:34:58.912Z,0.30
2018-12-07T16:36:02.803Z,0.40
2018-12-07T16:36:37.905Z,0.50
2018-12-07T16:39:10.945Z,0.40
2018-12-07T16:41:45.642Z,0.40
2018-12-07T16:43:02.514Z,1.50
2018-12-07T16:44:04.145Z,0.50
2018-12-07T16:46:13.404Z,0.80
2018-12-07T16:47:17.218Z,0.30
2018-12-07T16:48:13.247Z,0.30
2018-12-07T16:49:13.875Z,0.30
2018-12-07T16:51:45.132Z,0.80
2018-12-07T16:54:46.062Z,0.30
2018-12-07T16:55:20.517Z,0.30
2018-12-07T16:56:21.844Z,0.20
2018-12-07T16:59:02.181Z,0.50
2018-12-07T16:59:53.761Z,0.30
2018-12-07T17:01:14.243Z,0.10
2018-12-07T17:02:15.093Z,0.30
2018-12-07T17:03:13.696Z,0.90
2018-12-07T17:04:17.767Z,0.30
2018-12-07T17:06:24.234Z,0.40
2018-12-07T17:07:24.321Z,0.50
2018-12-07T17:08:24.228Z,0.30
2018-12-07T17:09:27.698Z,0.30
2018-12-07T17:10:24.885Z,0.30
2018-12-07T17:12:56.197Z,0.30
2018-12-07T17:13:56.173Z,0.30
2018-12-07T17:19:33.795Z,0.40
2018-12-07T17:20:37.303Z,0.20
2018-12-07T17:23:05.353Z,0.20
2018-12-07T17:24:05.547Z,1.10
2018-12-07T17:25:05.482Z,0.20
2018-12-07T17:30:57.226Z,0.30
2018-12-07T17:35:10.272Z,0.40
2018-12-07T17:38:55.626Z,0.40
2018-12-07T17:40:16.694Z,0.30
2018-12-07T17:41:16.569Z,0.60
2018-12-07T17:45:02.578Z,0.80
2018-12-07T17:46:23.571Z,0.50
2018-12-07T17:47:02.759Z,0.20
2018-12-07T17:48:24.267Z,0.30
2018-12-07T17:49:05.125Z,0.30
2018-12-07T17:50:02.666Z,0.60
2018-12-07T17:51:03.201Z,0.60
2018-12-07T17:52:24.578Z,0.30
2018-12-07T17:53:24.798Z,0.30
2018-12-07T17:54:29.016Z,0.90
2018-12-07T17:55:03.677Z,0.60
2018-12-07T17:56:04.198Z,0.40
2018-12-07T17:58:35.653Z,0.70
2018-12-07T17:59:47.945Z,1.40
2018-12-07T18:00:35.587Z,0.30
2018-12-07T18:01:56.934Z,0.30
2018-12-07T18:04:28.285Z,0.30
2018-12-07T18:08:15.555Z,1.10
2018-12-07T18:09:14.118Z,0.40
2018-12-07T18:10:18.662Z,0.80
2018-12-07T18:11:13.626Z,0.40
2018-12-07T18:13:48.067Z,0.40
2018-12-07T18:15:07.384Z,1.30
2018-12-07T18:18:53.356Z,0.80
2018-12-07T18:20:14.701Z,0.80
2018-12-07T18:22:28.906Z,0.50
2018-12-07T18:23:28.833Z,0.30
2018-12-07T18:24:28.929Z,0.50
2018-12-07T18:25:33.454Z,2.00
2018-12-07T18:28:06.383Z,0.50
2018-12-07T18:29:25.606Z,0.40
2018-12-07T18:30:04.591Z,1.60
2018-12-07T18:32:40.441Z,0.50
2018-12-07T18:33:57.816Z,2.00
2018-12-07T18:38:04.248Z,0.40
2018-12-07T18:38:41.697Z,0.30
2018-12-07T18:39:39.813Z,0.40
2018-12-07T18:41:01.316Z,0.30
2018-12-07T18:42:01.255Z,0.30
2018-12-07T18:44:36.196Z,0.40
2018-12-07T18:45:15.173Z,0.40
2018-12-07T18:46:15.150Z,0.50
2018-12-07T18:47:16.585Z,0.70
2018-12-07T18:48:41.811Z,0.50
2018-12-07T18:52:18.638Z,0.60
2018-12-07T18:53:22.178Z,0.90
2018-12-07T18:54:18.552Z,0.60
2018-12-07T18:56:50.462Z,0.80
2018-12-07T18:58:11.485Z,0.50
2018-12-07T18:58:54.443Z,0.60
2018-12-07T19:01:49.489Z,0.50
2018-12-07T19:02:24.754Z,0.90
2018-12-07T19:03:22.506Z,0.50
2018-12-07T19:04:27.734Z,1.60
2018-12-07T19:05:23.110Z,0.90
2018-12-07T19:06:23.083Z,0.70
2018-12-07T19:07:22.969Z,0.50
2018-12-07T19:09:59.537Z,0.80
2018-12-07T19:11:15.758Z,0.70
2018-12-07T19:11:54.628Z,1.40
2018-12-07T19:13:00.479Z,2.10
2018-12-07T19:13:55.364Z,0.80
2018-12-07T19:14:59.123Z,0.90
2018-12-07T19:15:55.351Z,1.30
2018-12-07T19:16:55.626Z,0.60
2018-12-07T19:17:56.772Z,1.90
2018-12-07T19:18:55.513Z,0.80
2018-12-07T19:19:55.687Z,0.70
2018-12-07T19:21:20.265Z,0.90
2018-12-07T19:21:56.076Z,1.10
2018-12-07T19:22:56.282Z,0.70
2018-12-07T19:23:56.116Z,0.60
2018-12-07T19:24:56.188Z,1.60
2018-12-07T19:35:13.656Z,0.70
2018-12-07T19:36:13.578Z,0.60
2018-12-07T19:38:48.873Z,0.90
2018-12-07T19:39:47.452Z,0.80
2018-12-07T19:40:47.616Z,1.10
2018-12-07T19:46:26.076Z,0.60
2018-12-07T19:47:25.927Z,0.60
2018-12-07T19:53:03.439Z,0.50
2018-12-07T19:54:05.951Z,0.50
2018-12-07T19:55:23.859Z,2.20
2018-12-07T19:56:05.997Z,0.50
2018-12-07T19:57:24.995Z,0.90
2018-12-07T19:58:04.061Z,0.80
2018-12-07T19:59:08.163Z,0.50
2018-12-07T20:00:03.583Z,0.70
2018-12-07T20:01:06.586Z,0.80
2018-12-07T20:07:03.994Z,1.00
2018-12-07T20:08:10.024Z,0.40
2018-12-07T20:08:45.529Z,0.40
2018-12-07T20:11:19.833Z,0.40
2018-12-07T20:12:15.191Z,0.50
2018-12-07T20:13:15.201Z,0.50
2018-12-07T20:16:07.965Z,0.70
2018-12-07T20:16:50.801Z,1.30
2018-12-07T20:17:46.860Z,0.50
2018-12-07T20:20:18.505Z,0.60
2018-12-07T20:21:18.488Z,1.40
2018-12-07T20:26:56.891Z,0.60
2018-12-07T20:28:21.982Z,0.80
2018-12-07T20:28:56.880Z,0.40
2018-12-07T20:33:04.333Z,0.40
2018-12-07T20:37:03.402Z,0.30
2018-12-07T20:38:07.452Z,0.80
2018-12-07T20:39:03.882Z,0.30
2018-12-07T20:40:04.788Z,0.30
2018-12-07T20:41:03.833Z,0.40
2018-12-07T20:42:03.827Z,0.30
2018-12-07T20:43:29.091Z,0.40
2018-12-07T20:44:04.352Z,0.30
2018-12-07T20:45:04.516Z,0.30
2018-12-07T20:46:04.591Z,0.40
2018-12-07T20:47:05.000Z,0.40
2018-12-07T20:48:05.013Z,0.50
2018-12-07T20:50:40.172Z,0.50
2018-12-07T20:51:40.028Z,0.60
2018-12-07T20:52:40.035Z,0.50
2018-12-07T20:53:40.534Z,0.50
2018-12-07T20:56:15.687Z,0.40
2018-12-07T20:57:15.893Z,1.50
2018-12-07T20:58:36.915Z,0.90
2018-12-07T20:59:18.647Z,0.50
2018-12-07T21:00:40.704Z,0.60
2018-12-07T21:01:16.277Z,0.40
2018-12-07T21:02:16.403Z,0.70
2018-12-07T21:03:16.380Z,0.40
2018-12-07T21:04:15.789Z,0.90
2018-12-07T21:05:41.259Z,0.70
2018-12-07T21:06:16.978Z,0.60
2018-12-07T21:07:16.698Z,0.40
2018-12-07T21:08:16.773Z,0.30
2018-12-07T21:09:18.651Z,0.30
2018-12-07T21:10:17.421Z,0.30
2018-12-07T21:13:15.258Z,0.50
2018-12-07T21:13:54.042Z,0.20
2018-12-07T21:16:27.509Z,0.40
2018-12-07T21:17:45.250Z,0.60
2018-12-07T21:18:24.451Z,0.40
2018-12-07T21:19:24.804Z,0.30
2018-12-07T21:20:45.702Z,0.80
2018-12-07T21:21:49.983Z,0.50
2018-12-07T21:22:24.942Z,0.30
2018-12-07T21:23:25.414Z,0.50
2018-12-07T21:24:25.315Z,0.30
2018-12-07T21:25:25.241Z,0.30
2018-12-07T21:26:25.399Z,0.90
2018-12-07T21:32:24.849Z,0.20
2018-12-07T21:36:40.000Z,0.80
2018-12-07T21:38:53.443Z,0.40
2018-12-07T21:40:03.072Z,0.90
2018-12-07T21:41:03.135Z,0.20
2018-12-07T21:43:13.834Z,0.30
2018-12-07T21:44:17.769Z,0.20
2018-12-07T21:45:13.900Z,0.30
2018-12-07T21:46:35.392Z,2.20
2018-12-07T21:47:14.426Z,0.70
2018-12-07T21:48:15.731Z,0.70
2018-12-07T21:49:14.490Z,0.90
2018-12-07T21:50:18.809Z,1.40
2018-12-07T21:51:14.822Z,1.60
2018-12-07T21:52:14.918Z,0.80
2018-12-07T21:53:14.820Z,0.80
2018-12-07T21:54:36.557Z,1.50
2018-12-07T22:01:27.730Z,0.90
2018-12-07T22:02:24.823Z,1.00
2018-12-07T22:03:25.022Z,2.00
2018-12-07T22:04:46.253Z,1.20
2018-12-07T22:05:46.430Z,4.00
2018-12-07T22:06:29.377Z,1.90
2018-12-07T22:07:25.328Z,2.60
2018-12-07T22:09:57.553Z,3.20
2018-12-07T22:10:57.499Z,2.40
2018-12-07T22:12:00.466Z,1.70
2018-12-07T22:12:57.722Z,1.60
2018-12-07T22:14:19.255Z,2.20
2018-12-07T22:19:36.279Z,1.00
2018-12-07T22:20:36.143Z,1.60
2018-12-07T22:21:37.063Z,2.40
2018-12-07T22:27:14.626Z,1.90
2018-12-07T22:31:21.010Z,1.20
2018-12-07T22:34:13.593Z,2.00